sensor_id;sensor_type;location;lat;lon;timestamp;temperature;humidity
39023;DHT22;25908;51.984;5.928;2022-12-10T00:01:42;1.70;99.90
39023;DHT22;25908;51.984;5.928;2022-12-10T00:04:08;1.80;99.90
39023;DHT22;25908;51.984;5.928;2022-12-10T00:06:35;1.80;99.90
39023;DHT22;25908;51.984;5.928;2022-12-10T00:09:03;1.80;99.90
39023;DHT22;25908;51.984;5.928;2022-12-10T00:11:29;1.70;99.90
39023;DHT22;25908;51.984;5.928;2022-12-10T00:13:55;1.70;99.90
39023;DHT22;25908;51.984;5.928;2022-12-10T00:16:24;1.70;99.90
39023;DHT22;25908;51.984;5.928;2022-12-10T00:18:50;1.70;99.90
39023;DHT22;25908;51.984;5.928;2022-12-10T00:21:18;1.70;99.90
39023;DHT22;25908;51.984;5.928;2022-12-10T00:23:45;1.60;99.90
39023;DHT22;25908;51.984;5.928;2022-12-10T00:26:20;1.70;99.90
39023;DHT22;25908;51.984;5.928;2022-12-10T00:28:46;1.70;99.90
39023;DHT22;25908;51.984;5.928;2022-12-10T00:31:16;1.70;99.90
39023;DHT22;25908;51.984;5.928;2022-12-10T00:33:43;1.60;99.90
39023;DHT22;25908;51.984;5.928;2022-12-10T00:36:17;1.60;99.90
39023;DHT22;25908;51.984;5.928;2022-12-10T00:38:44;1.60;99.90
39023;DHT22;25908;51.984;5.928;2022-12-10T00:41:11;1.60;99.90
39023;DHT22;25908;51.984;5.928;2022-12-10T00:43:37;1.60;99.90
39023;DHT22;25908;51.984;5.928;2022-12-10T00:46:03;1.60;99.90
39023;DHT22;25908;51.984;5.928;2022-12-10T00:48:29;1.60;99.90
39023;DHT22;25908;51.984;5.928;2022-12-10T00:51:03;1.60;99.90
39023;DHT22;25908;51.984;5.928;2022-12-10T00:53:31;1.60;99.90
39023;DHT22;25908;51.984;5.928;2022-12-10T00:55:57;1.60;99.90
39023;DHT22;25908;51.984;5.928;2022-12-10T00:58:25;1.60;99.90
39023;DHT22;25908;51.984;5.928;2022-12-10T01:00:51;1.60;99.90
39023;DHT22;25908;51.984;5.928;2022-12-10T01:03:17;1.60;99.90
39023;DHT22;25908;51.984;5.928;2022-12-10T01:05:43;1.50;99.90
39023;DHT22;25908;51.984;5.928;2022-12-10T01:08:08;1.50;99.90
39023;DHT22;25908;51.984;5.928;2022-12-10T01:10:34;1.50;99.90
39023;DHT22;25908;51.984;5.928;2022-12-10T01:12:59;1.50;99.90
39023;DHT22;25908;51.984;5.928;2022-12-10T01:15:25;1.50;99.90
39023;DHT22;25908;51.984;5.928;2022-12-10T01:17:51;1.50;99.90
39023;DHT22;25908;51.984;5.928;2022-12-10T01:20:16;1.50;99.90
39023;DHT22;25908;51.984;5.928;2022-12-10T01:22:42;1.50;99.90
39023;DHT22;25908;51.984;5.928;2022-12-10T01:25:08;1.50;99.90
39023;DHT22;25908;51.984;5.928;2022-12-10T01:27:34;1.50;99.90
39023;DHT22;25908;51.984;5.928;2022-12-10T01:29:59;1.50;99.90
39023;DHT22;25908;51.984;5.928;2022-12-10T01:32:25;1.50;99.90
39023;DHT22;25908;51.984;5.928;2022-12-10T01:34:50;1.40;99.90
39023;DHT22;25908;51.984;5.928;2022-12-10T01:37:16;1.40;99.90
39023;DHT22;25908;51.984;5.928;2022-12-10T01:39:41;1.40;99.90
39023;DHT22;25908;51.984;5.928;2022-12-10T01:42:12;1.40;99.90
39023;DHT22;25908;51.984;5.928;2022-12-10T01:47:07;1.40;99.90
39023;DHT22;25908;51.984;5.928;2022-12-10T01:49:35;1.30;99.90
39023;DHT22;25908;51.984;5.928;2022-12-10T01:52:02;1.30;99.90
39023;DHT22;25908;51.984;5.928;2022-12-10T01:54:31;1.30;99.90
39023;DHT22;25908;51.984;5.928;2022-12-10T01:59:27;1.30;99.90
39023;DHT22;25908;51.984;5.928;2022-12-10T02:13:30;1.30;99.90
39023;DHT22;25908;51.984;5.928;2022-12-10T02:16:04;1.20;99.90
39023;DHT22;25908;51.984;5.928;2022-12-10T02:18:58;1.20;99.90
39023;DHT22;25908;51.984;5.928;2022-12-10T02:21:26;1.20;99.90
39023;DHT22;25908;51.984;5.928;2022-12-10T02:23:57;1.20;99.90
39023;DHT22;25908;51.984;5.928;2022-12-10T02:29:16;1.20;99.90
39023;DHT22;25908;51.984;5.928;2022-12-10T02:31:48;1.20;99.90
39023;DHT22;25908;51.984;5.928;2022-12-10T02:34:16;1.20;99.90
39023;DHT22;25908;51.984;5.928;2022-12-10T02:36:44;1.20;99.90
39023;DHT22;25908;51.984;5.928;2022-12-10T02:39:14;1.20;99.90
39023;DHT22;25908;51.984;5.928;2022-12-10T02:41:46;1.20;99.90
39023;DHT22;25908;51.984;5.928;2022-12-10T02:44:14;1.20;99.90
39023;DHT22;25908;51.984;5.928;2022-12-10T02:46:42;1.20;99.90
39023;DHT22;25908;51.984;5.928;2022-12-10T02:49:11;1.20;99.90
39023;DHT22;25908;51.984;5.928;2022-12-10T02:51:38;1.20;99.90
39023;DHT22;25908;51.984;5.928;2022-12-10T02:54:07;1.20;99.90
39023;DHT22;25908;51.984;5.928;2022-12-10T02:56:44;1.20;99.90
39023;DHT22;25908;51.984;5.928;2022-12-10T02:59:22;1.20;99.90
39023;DHT22;25908;51.984;5.928;2022-12-10T03:02:04;1.20;99.90
39023;DHT22;25908;51.984;5.928;2022-12-10T03:10:34;1.20;99.90
39023;DHT22;25908;51.984;5.928;2022-12-10T03:13:08;1.20;99.90
39023;DHT22;25908;51.984;5.928;2022-12-10T03:15:39;1.10;99.90
39023;DHT22;25908;51.984;5.928;2022-12-10T03:18:07;1.10;99.90
39023;DHT22;25908;51.984;5.928;2022-12-10T03:20:38;1.10;99.90
39023;DHT22;25908;51.984;5.928;2022-12-10T03:23:08;1.00;99.90
39023;DHT22;25908;51.984;5.928;2022-12-10T03:25:35;1.10;99.90
39023;DHT22;25908;51.984;5.928;2022-12-10T03:28:03;1.00;99.90
39023;DHT22;25908;51.984;5.928;2022-12-10T03:30:31;1.00;99.90
39023;DHT22;25908;51.984;5.928;2022-12-10T03:32:57;1.00;99.90
39023;DHT22;25908;51.984;5.928;2022-12-10T03:35:24;1.00;99.90
39023;DHT22;25908;51.984;5.928;2022-12-10T03:37:50;1.00;99.90
39023;DHT22;25908;51.984;5.928;2022-12-10T03:40:18;1.00;99.90
39023;DHT22;25908;51.984;5.928;2022-12-10T03:42:45;1.00;99.90
39023;DHT22;25908;51.984;5.928;2022-12-10T03:45:11;1.00;99.90
39023;DHT22;25908;51.984;5.928;2022-12-10T03:47:36;1.10;99.90
39023;DHT22;25908;51.984;5.928;2022-12-10T03:50:03;1.00;99.90
39023;DHT22;25908;51.984;5.928;2022-12-10T03:52:28;1.00;99.90
39023;DHT22;25908;51.984;5.928;2022-12-10T03:54:54;1.00;99.90
39023;DHT22;25908;51.984;5.928;2022-12-10T03:57:20;0.90;99.90
39023;DHT22;25908;51.984;5.928;2022-12-10T03:59:45;1.00;99.90
39023;DHT22;25908;51.984;5.928;2022-12-10T04:02:11;0.90;99.90
39023;DHT22;25908;51.984;5.928;2022-12-10T04:04:37;0.90;99.90
39023;DHT22;25908;51.984;5.928;2022-12-10T04:07:02;0.90;99.90
39023;DHT22;25908;51.984;5.928;2022-12-10T04:09:28;0.90;99.90
39023;DHT22;25908;51.984;5.928;2022-12-10T04:11:57;0.90;99.90
39023;DHT22;25908;51.984;5.928;2022-12-10T04:14:24;0.90;99.90
39023;DHT22;25908;51.984;5.928;2022-12-10T04:17:08;0.90;99.90
39023;DHT22;25908;51.984;5.928;2022-12-10T04:19:33;0.90;99.90
39023;DHT22;25908;51.984;5.928;2022-12-10T04:21:59;0.90;99.90
39023;DHT22;25908;51.984;5.928;2022-12-10T04:24:43;0.90;99.90
39023;DHT22;25908;51.984;5.928;2022-12-10T04:27:30;0.80;99.90
39023;DHT22;25908;51.984;5.928;2022-12-10T04:29:56;0.80;99.90
39023;DHT22;25908;51.984;5.928;2022-12-10T04:32:24;0.90;99.90
39023;DHT22;25908;51.984;5.928;2022-12-10T04:34:49;0.90;99.90
39023;DHT22;25908;51.984;5.928;2022-12-10T04:37:16;0.90;99.90
39023;DHT22;25908;51.984;5.928;2022-12-10T04:39:42;1.00;99.90
39023;DHT22;25908;51.984;5.928;2022-12-10T04:42:11;1.00;99.90
39023;DHT22;25908;51.984;5.928;2022-12-10T04:44:36;1.00;99.90
39023;DHT22;25908;51.984;5.928;2022-12-10T04:47:04;0.90;99.90
39023;DHT22;25908;51.984;5.928;2022-12-10T04:49:29;1.00;99.90
39023;DHT22;25908;51.984;5.928;2022-12-10T04:51:55;0.90;99.90
39023;DHT22;25908;51.984;5.928;2022-12-10T04:54:21;0.90;99.90
39023;DHT22;25908;51.984;5.928;2022-12-10T04:56:47;0.90;99.90
39023;DHT22;25908;51.984;5.928;2022-12-10T04:59:13;0.90;99.90
39023;DHT22;25908;51.984;5.928;2022-12-10T05:01:38;0.90;99.90
39023;DHT22;25908;51.984;5.928;2022-12-10T05:04:06;0.90;99.90
39023;DHT22;25908;51.984;5.928;2022-12-10T05:06:33;0.90;99.90
39023;DHT22;25908;51.984;5.928;2022-12-10T05:08:59;0.90;99.90
39023;DHT22;25908;51.984;5.928;2022-12-10T05:11:26;0.90;99.90
39023;DHT22;25908;51.984;5.928;2022-12-10T05:13:53;0.90;99.90
39023;DHT22;25908;51.984;5.928;2022-12-10T05:16:19;1.00;99.90
39023;DHT22;25908;51.984;5.928;2022-12-10T05:18:46;1.00;99.90
39023;DHT22;25908;51.984;5.928;2022-12-10T05:21:13;0.90;99.90
39023;DHT22;25908;51.984;5.928;2022-12-10T05:23:42;1.00;99.90
39023;DHT22;25908;51.984;5.928;2022-12-10T05:26:10;0.90;99.90
39023;DHT22;25908;51.984;5.928;2022-12-10T05:28:42;1.00;99.90
39023;DHT22;25908;51.984;5.928;2022-12-10T05:31:19;0.90;99.90
39023;DHT22;25908;51.984;5.928;2022-12-10T05:33:45;1.00;99.90
39023;DHT22;25908;51.984;5.928;2022-12-10T05:36:13;1.00;99.90
39023;DHT22;25908;51.984;5.928;2022-12-10T05:38:39;1.00;99.90
39023;DHT22;25908;51.984;5.928;2022-12-10T05:41:17;1.10;99.90
39023;DHT22;25908;51.984;5.928;2022-12-10T05:43:43;1.00;99.90
39023;DHT22;25908;51.984;5.928;2022-12-10T05:46:11;1.00;99.90
39023;DHT22;25908;51.984;5.928;2022-12-10T05:48:37;1.00;99.90
39023;DHT22;25908;51.984;5.928;2022-12-10T05:51:14;0.90;99.90
39023;DHT22;25908;51.984;5.928;2022-12-10T05:53:40;0.90;99.90
39023;DHT22;25908;51.984;5.928;2022-12-10T05:56:08;0.80;99.90
39023;DHT22;25908;51.984;5.928;2022-12-10T05:58:35;0.70;99.90
39023;DHT22;25908;51.984;5.928;2022-12-10T06:01:10;0.80;99.90
39023;DHT22;25908;51.984;5.928;2022-12-10T06:03:35;0.80;99.90
39023;DHT22;25908;51.984;5.928;2022-12-10T06:06:01;0.80;99.90
39023;DHT22;25908;51.984;5.928;2022-12-10T06:08:27;0.90;99.90
39023;DHT22;25908;51.984;5.928;2022-12-10T06:10:52;0.90;99.90
39023;DHT22;25908;51.984;5.928;2022-12-10T06:13:19;0.90;99.90
39023;DHT22;25908;51.984;5.928;2022-12-10T06:15:45;0.80;99.90
39023;DHT22;25908;51.984;5.928;2022-12-10T06:18:11;0.80;99.90
39023;DHT22;25908;51.984;5.928;2022-12-10T06:20:39;0.80;99.90
39023;DHT22;25908;51.984;5.928;2022-12-10T06:23:05;0.80;99.90
39023;DHT22;25908;51.984;5.928;2022-12-10T06:25:31;0.70;99.90
39023;DHT22;25908;51.984;5.928;2022-12-10T06:27:57;0.80;99.90
39023;DHT22;25908;51.984;5.928;2022-12-10T06:30:23;0.80;99.90
39023;DHT22;25908;51.984;5.928;2022-12-10T06:32:48;0.80;99.90
39023;DHT22;25908;51.984;5.928;2022-12-10T06:35:14;0.80;99.90
39023;DHT22;25908;51.984;5.928;2022-12-10T06:37:40;0.80;99.90
39023;DHT22;25908;51.984;5.928;2022-12-10T06:40:06;0.90;99.90
39023;DHT22;25908;51.984;5.928;2022-12-10T06:42:31;0.90;99.90
39023;DHT22;25908;51.984;5.928;2022-12-10T06:44:57;0.90;99.90
39023;DHT22;25908;51.984;5.928;2022-12-10T06:47:23;0.90;99.90
39023;DHT22;25908;51.984;5.928;2022-12-10T06:49:48;0.90;99.90
39023;DHT22;25908;51.984;5.928;2022-12-10T06:52:14;1.00;99.90
39023;DHT22;25908;51.984;5.928;2022-12-10T06:54:40;1.00;99.90
39023;DHT22;25908;51.984;5.928;2022-12-10T06:57:05;0.90;99.90
39023;DHT22;25908;51.984;5.928;2022-12-10T06:59:31;0.70;99.90
39023;DHT22;25908;51.984;5.928;2022-12-10T07:01:57;0.70;99.90
39023;DHT22;25908;51.984;5.928;2022-12-10T07:04:23;0.70;99.90
39023;DHT22;25908;51.984;5.928;2022-12-10T07:06:48;0.60;99.90
39023;DHT22;25908;51.984;5.928;2022-12-10T07:09:14;0.60;99.90
39023;DHT22;25908;51.984;5.928;2022-12-10T07:11:40;0.70;99.90
39023;DHT22;25908;51.984;5.928;2022-12-10T07:14:05;0.70;99.90
39023;DHT22;25908;51.984;5.928;2022-12-10T07:16:32;0.80;99.90
39023;DHT22;25908;51.984;5.928;2022-12-10T07:19:00;0.80;99.90
39023;DHT22;25908;51.984;5.928;2022-12-10T07:21:34;0.70;99.90
39023;DHT22;25908;51.984;5.928;2022-12-10T07:24:03;0.80;99.90
39023;DHT22;25908;51.984;5.928;2022-12-10T07:26:31;0.70;99.90
39023;DHT22;25908;51.984;5.928;2022-12-10T07:28:58;0.70;99.90
39023;DHT22;25908;51.984;5.928;2022-12-10T07:31:25;0.70;99.90
39023;DHT22;25908;51.984;5.928;2022-12-10T07:33:52;0.70;99.90
39023;DHT22;25908;51.984;5.928;2022-12-10T07:36:19;0.80;99.90
39023;DHT22;25908;51.984;5.928;2022-12-10T07:38:45;0.80;99.90
39023;DHT22;25908;51.984;5.928;2022-12-10T07:41:12;0.90;99.90
39023;DHT22;25908;51.984;5.928;2022-12-10T07:43:40;0.90;99.90
39023;DHT22;25908;51.984;5.928;2022-12-10T07:46:30;0.90;99.90
39023;DHT22;25908;51.984;5.928;2022-12-10T07:48:56;0.80;99.90
39023;DHT22;25908;51.984;5.928;2022-12-10T07:51:22;0.60;99.90
39023;DHT22;25908;51.984;5.928;2022-12-10T07:53:51;0.60;99.90
39023;DHT22;25908;51.984;5.928;2022-12-10T07:56:16;0.60;99.90
39023;DHT22;25908;51.984;5.928;2022-12-10T07:58:44;0.60;99.90
39023;DHT22;25908;51.984;5.928;2022-12-10T08:01:12;0.70;99.90
39023;DHT22;25908;51.984;5.928;2022-12-10T08:03:38;0.70;99.90
39023;DHT22;25908;51.984;5.928;2022-12-10T08:06:10;0.70;99.90
39023;DHT22;25908;51.984;5.928;2022-12-10T08:08:37;0.70;99.90
39023;DHT22;25908;51.984;5.928;2022-12-10T08:11:04;0.70;99.90
39023;DHT22;25908;51.984;5.928;2022-12-10T08:13:30;0.70;99.90
39023;DHT22;25908;51.984;5.928;2022-12-10T08:16:04;0.80;99.90
39023;DHT22;25908;51.984;5.928;2022-12-10T08:18:31;0.80;99.90
39023;DHT22;25908;51.984;5.928;2022-12-10T08:20:57;0.80;99.90
39023;DHT22;25908;51.984;5.928;2022-12-10T08:23:22;0.80;99.90
39023;DHT22;25908;51.984;5.928;2022-12-10T08:25:48;0.90;99.90
39023;DHT22;25908;51.984;5.928;2022-12-10T08:28:14;0.90;99.90
39023;DHT22;25908;51.984;5.928;2022-12-10T08:30:39;0.90;99.90
39023;DHT22;25908;51.984;5.928;2022-12-10T08:33:06;0.90;99.90
39023;DHT22;25908;51.984;5.928;2022-12-10T08:35:31;0.90;99.90
39023;DHT22;25908;51.984;5.928;2022-12-10T08:37:57;0.90;99.90
39023;DHT22;25908;51.984;5.928;2022-12-10T08:40:22;0.90;99.90
39023;DHT22;25908;51.984;5.928;2022-12-10T08:42:48;1.00;99.90
39023;DHT22;25908;51.984;5.928;2022-12-10T08:45:15;1.00;99.90
39023;DHT22;25908;51.984;5.928;2022-12-10T08:47:40;1.00;99.90
39023;DHT22;25908;51.984;5.928;2022-12-10T08:50:06;1.00;99.90
39023;DHT22;25908;51.984;5.928;2022-12-10T08:52:31;1.00;99.90
39023;DHT22;25908;51.984;5.928;2022-12-10T08:54:57;1.10;99.90
39023;DHT22;25908;51.984;5.928;2022-12-10T08:57:23;1.00;99.90
39023;DHT22;25908;51.984;5.928;2022-12-10T08:59:48;1.00;99.90
39023;DHT22;25908;51.984;5.928;2022-12-10T09:02:14;0.90;99.90
39023;DHT22;25908;51.984;5.928;2022-12-10T09:04:39;0.90;99.90
39023;DHT22;25908;51.984;5.928;2022-12-10T09:07:06;1.00;99.90
39023;DHT22;25908;51.984;5.928;2022-12-10T09:09:31;1.00;99.90
39023;DHT22;25908;51.984;5.928;2022-12-10T09:11:57;0.90;99.90
39023;DHT22;25908;51.984;5.928;2022-12-10T09:14:23;1.00;99.90
39023;DHT22;25908;51.984;5.928;2022-12-10T09:16:49;1.00;99.90
39023;DHT22;25908;51.984;5.928;2022-12-10T09:19:15;1.00;99.90
39023;DHT22;25908;51.984;5.928;2022-12-10T09:21:40;1.00;99.90
39023;DHT22;25908;51.984;5.928;2022-12-10T09:24:06;1.00;99.90
39023;DHT22;25908;51.984;5.928;2022-12-10T09:26:32;1.00;99.90
39023;DHT22;25908;51.984;5.928;2022-12-10T09:28:58;1.00;99.90
39023;DHT22;25908;51.984;5.928;2022-12-10T09:31:23;1.00;99.90
39023;DHT22;25908;51.984;5.928;2022-12-10T09:33:51;1.00;99.90
39023;DHT22;25908;51.984;5.928;2022-12-10T09:36:18;1.10;99.90
39023;DHT22;25908;51.984;5.928;2022-12-10T09:38:44;1.20;99.90
39023;DHT22;25908;51.984;5.928;2022-12-10T09:43:45;1.30;99.90
39023;DHT22;25908;51.984;5.928;2022-12-10T09:49:39;1.30;99.90
39023;DHT22;25908;51.984;5.928;2022-12-10T09:52:14;1.30;99.90
39023;DHT22;25908;51.984;5.928;2022-12-10T09:54:48;1.40;99.90
39023;DHT22;25908;51.984;5.928;2022-12-10T09:59:49;1.40;99.90
39023;DHT22;25908;51.984;5.928;2022-12-10T10:02:30;1.50;99.90
39023;DHT22;25908;51.984;5.928;2022-12-10T10:07:31;1.40;99.90
39023;DHT22;25908;51.984;5.928;2022-12-10T10:10:03;1.40;99.90
39023;DHT22;25908;51.984;5.928;2022-12-10T10:12:30;1.50;99.90
39023;DHT22;25908;51.984;5.928;2022-12-10T10:14:57;1.50;99.90
39023;DHT22;25908;51.984;5.928;2022-12-10T10:17:36;1.60;99.90
39023;DHT22;25908;51.984;5.928;2022-12-10T10:20:03;1.60;99.90
39023;DHT22;25908;51.984;5.928;2022-12-10T10:22:28;1.60;99.90
39023;DHT22;25908;51.984;5.928;2022-12-10T10:24:55;1.60;99.90
39023;DHT22;25908;51.984;5.928;2022-12-10T10:27:28;1.60;99.90
39023;DHT22;25908;51.984;5.928;2022-12-10T10:29:57;1.60;99.90
39023;DHT22;25908;51.984;5.928;2022-12-10T10:32:26;1.60;99.90
39023;DHT22;25908;51.984;5.928;2022-12-10T10:34:58;1.70;99.90
39023;DHT22;25908;51.984;5.928;2022-12-10T10:37:44;1.60;99.90
39023;DHT22;25908;51.984;5.928;2022-12-10T10:40:32;1.60;99.90
39023;DHT22;25908;51.984;5.928;2022-12-10T10:42:59;1.60;99.90
39023;DHT22;25908;51.984;5.928;2022-12-10T10:45:42;1.60;99.90
39023;DHT22;25908;51.984;5.928;2022-12-10T10:48:18;1.60;99.90
39023;DHT22;25908;51.984;5.928;2022-12-10T10:50:54;1.70;99.90
39023;DHT22;25908;51.984;5.928;2022-12-10T10:56:20;1.70;99.90
39023;DHT22;25908;51.984;5.928;2022-12-10T10:59:05;1.70;99.90
39023;DHT22;25908;51.984;5.928;2022-12-10T11:01:46;1.70;99.90
39023;DHT22;25908;51.984;5.928;2022-12-10T11:04:14;1.70;99.90
39023;DHT22;25908;51.984;5.928;2022-12-10T11:06:41;1.70;99.90
39023;DHT22;25908;51.984;5.928;2022-12-10T11:09:07;1.70;99.90
39023;DHT22;25908;51.984;5.928;2022-12-10T11:11:40;1.70;99.90
39023;DHT22;25908;51.984;5.928;2022-12-10T11:14:26;1.60;99.90
39023;DHT22;25908;51.984;5.928;2022-12-10T11:17:24;1.60;99.90
39023;DHT22;25908;51.984;5.928;2022-12-10T11:22:52;1.60;99.90
39023;DHT22;25908;51.984;5.928;2022-12-10T11:25:26;1.70;99.90
39023;DHT22;25908;51.984;5.928;2022-12-10T11:28:27;1.70;99.90
39023;DHT22;25908;51.984;5.928;2022-12-10T11:34:19;1.60;99.90
39023;DHT22;25908;51.984;5.928;2022-12-10T11:40:03;1.70;99.90
39023;DHT22;25908;51.984;5.928;2022-12-10T11:45:20;1.90;99.90
39023;DHT22;25908;51.984;5.928;2022-12-10T11:48:45;1.90;99.90
39023;DHT22;25908;51.984;5.928;2022-12-10T12:00:16;1.80;99.90
39023;DHT22;25908;51.984;5.928;2022-12-10T12:05:24;2.00;99.90
39023;DHT22;25908;51.984;5.928;2022-12-10T12:08:35;2.00;99.90
39023;DHT22;25908;51.984;5.928;2022-12-10T12:11:14;2.00;99.90
39023;DHT22;25908;51.984;5.928;2022-12-10T12:13:54;2.00;99.90
39023;DHT22;25908;51.984;5.928;2022-12-10T12:16:48;2.00;99.90
39023;DHT22;25908;51.984;5.928;2022-12-10T12:20:02;1.90;99.90
39023;DHT22;25908;51.984;5.928;2022-12-10T12:22:24;1.80;99.90
39023;DHT22;25908;51.984;5.928;2022-12-10T12:24:53;1.90;99.90
39023;DHT22;25908;51.984;5.928;2022-12-10T12:27:45;2.00;99.90
39023;DHT22;25908;51.984;5.928;2022-12-10T12:30:14;2.00;99.90
39023;DHT22;25908;51.984;5.928;2022-12-10T12:36:04;2.00;99.90
39023;DHT22;25908;51.984;5.928;2022-12-10T12:38:42;2.00;99.90
39023;DHT22;25908;51.984;5.928;2022-12-10T12:44:03;2.10;99.90
39023;DHT22;25908;51.984;5.928;2022-12-10T12:46:38;2.10;99.90
39023;DHT22;25908;51.984;5.928;2022-12-10T12:49:27;2.20;99.90
39023;DHT22;25908;51.984;5.928;2022-12-10T12:54:36;2.10;99.90
39023;DHT22;25908;51.984;5.928;2022-12-10T12:57:18;2.10;99.90
39023;DHT22;25908;51.984;5.928;2022-12-10T13:00:00;2.10;99.90
39023;DHT22;25908;51.984;5.928;2022-12-10T13:05:33;2.20;99.90
39023;DHT22;25908;51.984;5.928;2022-12-10T13:10:52;2.20;99.90
39023;DHT22;25908;51.984;5.928;2022-12-10T13:15:50;1.90;99.90
39023;DHT22;25908;51.984;5.928;2022-12-10T13:20:51;1.80;99.90
39023;DHT22;25908;51.984;5.928;2022-12-10T13:23:48;1.80;99.90
39023;DHT22;25908;51.984;5.928;2022-12-10T13:26:27;1.90;99.90
39023;DHT22;25908;51.984;5.928;2022-12-10T13:28:54;2.00;99.90
39023;DHT22;25908;51.984;5.928;2022-12-10T13:31:33;2.00;99.90
39023;DHT22;25908;51.984;5.928;2022-12-10T13:36:33;2.10;99.90
39023;DHT22;25908;51.984;5.928;2022-12-10T13:41:29;2.00;99.90
39023;DHT22;25908;51.984;5.928;2022-12-10T13:44:39;2.00;99.90
39023;DHT22;25908;51.984;5.928;2022-12-10T13:49:57;1.90;99.90
39023;DHT22;25908;51.984;5.928;2022-12-10T13:52:35;1.80;99.90
39023;DHT22;25908;51.984;5.928;2022-12-10T14:00:29;1.80;99.90
39023;DHT22;25908;51.984;5.928;2022-12-10T14:08:18;1.90;99.90
39023;DHT22;25908;51.984;5.928;2022-12-10T14:10:45;1.90;99.90
39023;DHT22;25908;51.984;5.928;2022-12-10T14:13:13;2.00;99.90
39023;DHT22;25908;51.984;5.928;2022-12-10T14:15:51;2.00;99.90
39023;DHT22;25908;51.984;5.928;2022-12-10T14:18:18;2.10;99.90
39023;DHT22;25908;51.984;5.928;2022-12-10T14:20:46;2.10;99.90
39023;DHT22;25908;51.984;5.928;2022-12-10T14:23:27;2.10;99.90
39023;DHT22;25908;51.984;5.928;2022-12-10T14:26:20;2.20;99.90
39023;DHT22;25908;51.984;5.928;2022-12-10T14:28:48;2.30;99.90
39023;DHT22;25908;51.984;5.928;2022-12-10T14:31:20;2.30;99.90
39023;DHT22;25908;51.984;5.928;2022-12-10T14:33:48;2.20;99.90
39023;DHT22;25908;51.984;5.928;2022-12-10T14:36:34;2.10;99.90
39023;DHT22;25908;51.984;5.928;2022-12-10T14:39:03;2.10;99.90
39023;DHT22;25908;51.984;5.928;2022-12-10T14:41:30;2.10;99.90
39023;DHT22;25908;51.984;5.928;2022-12-10T14:44:02;2.20;99.90
39023;DHT22;25908;51.984;5.928;2022-12-10T14:46:30;2.10;99.90
39023;DHT22;25908;51.984;5.928;2022-12-10T14:48:57;2.10;99.90
39023;DHT22;25908;51.984;5.928;2022-12-10T14:51:25;2.10;99.90
39023;DHT22;25908;51.984;5.928;2022-12-10T14:53:54;2.10;99.90
39023;DHT22;25908;51.984;5.928;2022-12-10T14:56:30;2.10;99.90
39023;DHT22;25908;51.984;5.928;2022-12-10T14:59:18;2.10;99.90
39023;DHT22;25908;51.984;5.928;2022-12-10T15:01:51;2.00;99.90
39023;DHT22;25908;51.984;5.928;2022-12-10T15:04:19;2.00;99.90
39023;DHT22;25908;51.984;5.928;2022-12-10T15:06:45;1.90;99.90
39023;DHT22;25908;51.984;5.928;2022-12-10T15:09:21;1.80;99.90
39023;DHT22;25908;51.984;5.928;2022-12-10T15:11:58;1.80;99.90
39023;DHT22;25908;51.984;5.928;2022-12-10T15:14:26;1.90;99.90
39023;DHT22;25908;51.984;5.928;2022-12-10T15:16:52;1.90;99.90
39023;DHT22;25908;51.984;5.928;2022-12-10T15:21:50;2.00;99.90
39023;DHT22;25908;51.984;5.928;2022-12-10T15:24:25;2.00;99.90
39023;DHT22;25908;51.984;5.928;2022-12-10T15:26:51;2.00;99.90
39023;DHT22;25908;51.984;5.928;2022-12-10T15:31:56;2.00;99.90
39023;DHT22;25908;51.984;5.928;2022-12-10T15:34:26;2.00;99.90
39023;DHT22;25908;51.984;5.928;2022-12-10T15:36:59;2.00;99.90
39023;DHT22;25908;51.984;5.928;2022-12-10T15:39:35;2.00;99.90
39023;DHT22;25908;51.984;5.928;2022-12-10T15:42:07;1.90;99.90
39023;DHT22;25908;51.984;5.928;2022-12-10T15:44:40;1.90;99.90
39023;DHT22;25908;51.984;5.928;2022-12-10T15:47:24;2.00;99.90
39023;DHT22;25908;51.984;5.928;2022-12-10T15:49:53;2.00;99.90
39023;DHT22;25908;51.984;5.928;2022-12-10T15:52:24;2.10;99.90
39023;DHT22;25908;51.984;5.928;2022-12-10T15:54:53;2.10;99.90
39023;DHT22;25908;51.984;5.928;2022-12-10T15:57:24;2.10;99.90
39023;DHT22;25908;51.984;5.928;2022-12-10T16:00:05;2.10;99.90
39023;DHT22;25908;51.984;5.928;2022-12-10T16:02:41;2.10;99.90
39023;DHT22;25908;51.984;5.928;2022-12-10T16:05:18;2.10;99.90
39023;DHT22;25908;51.984;5.928;2022-12-10T16:07:46;2.20;99.90
39023;DHT22;25908;51.984;5.928;2022-12-10T16:10:14;2.20;99.90
39023;DHT22;25908;51.984;5.928;2022-12-10T16:12:40;2.20;99.90
39023;DHT22;25908;51.984;5.928;2022-12-10T16:15:10;2.10;99.90
39023;DHT22;25908;51.984;5.928;2022-12-10T16:17:40;2.10;99.90
39023;DHT22;25908;51.984;5.928;2022-12-10T16:20:19;2.10;99.90
39023;DHT22;25908;51.984;5.928;2022-12-10T16:22:47;2.20;99.90
39023;DHT22;25908;51.984;5.928;2022-12-10T16:25:13;2.20;99.90
39023;DHT22;25908;51.984;5.928;2022-12-10T16:27:40;2.20;99.90
39023;DHT22;25908;51.984;5.928;2022-12-10T16:30:24;2.20;99.90
39023;DHT22;25908;51.984;5.928;2022-12-10T16:32:50;2.10;99.90
39023;DHT22;25908;51.984;5.928;2022-12-10T16:35:16;2.00;99.90
39023;DHT22;25908;51.984;5.928;2022-12-10T16:37:47;2.10;99.90
39023;DHT22;25908;51.984;5.928;2022-12-10T16:40:16;2.10;99.90
39023;DHT22;25908;51.984;5.928;2022-12-10T16:42:42;2.10;99.90
39023;DHT22;25908;51.984;5.928;2022-12-10T16:45:32;2.10;99.90
39023;DHT22;25908;51.984;5.928;2022-12-10T16:47:59;2.10;99.90
39023;DHT22;25908;51.984;5.928;2022-12-10T16:50:24;2.10;99.90
39023;DHT22;25908;51.984;5.928;2022-12-10T16:52:51;2.10;99.90
39023;DHT22;25908;51.984;5.928;2022-12-10T16:55:20;2.00;99.90
39023;DHT22;25908;51.984;5.928;2022-12-10T16:57:46;2.00;99.90
39023;DHT22;25908;51.984;5.928;2022-12-10T17:00:15;2.00;99.90
39023;DHT22;25908;51.984;5.928;2022-12-10T17:02:42;2.10;99.90
39023;DHT22;25908;51.984;5.928;2022-12-10T17:05:18;2.10;99.90
39023;DHT22;25908;51.984;5.928;2022-12-10T17:07:47;2.10;99.90
39023;DHT22;25908;51.984;5.928;2022-12-10T17:10:13;2.10;99.90
39023;DHT22;25908;51.984;5.928;2022-12-10T17:12:40;2.20;99.90
39023;DHT22;25908;51.984;5.928;2022-12-10T17:15:11;2.20;99.90
39023;DHT22;25908;51.984;5.928;2022-12-10T17:17:37;2.20;99.90
39023;DHT22;25908;51.984;5.928;2022-12-10T17:20:16;2.20;99.90
39023;DHT22;25908;51.984;5.928;2022-12-10T17:22:51;2.20;99.90
39023;DHT22;25908;51.984;5.928;2022-12-10T17:25:18;2.20;99.90
39023;DHT22;25908;51.984;5.928;2022-12-10T17:27:43;2.10;99.90
39023;DHT22;25908;51.984;5.928;2022-12-10T17:30:13;2.10;99.90
39023;DHT22;25908;51.984;5.928;2022-12-10T17:32:42;2.10;99.90
39023;DHT22;25908;51.984;5.928;2022-12-10T17:35:09;2.10;99.90
39023;DHT22;25908;51.984;5.928;2022-12-10T17:37:36;2.20;99.90
39023;DHT22;25908;51.984;5.928;2022-12-10T17:40:19;2.20;99.90
39023;DHT22;25908;51.984;5.928;2022-12-10T17:42:44;2.20;99.90
39023;DHT22;25908;51.984;5.928;2022-12-10T17:45:16;2.20;99.90
39023;DHT22;25908;51.984;5.928;2022-12-10T17:47:42;2.20;99.90
39023;DHT22;25908;51.984;5.928;2022-12-10T17:50:26;2.10;99.90